createdAt,value
2018-07-27T00:00:29.548Z,1.05
2018-07-27T00:02:58.620Z,1.07
2018-07-27T00:05:27.515Z,0.90
2018-07-27T00:07:56.549Z,0.98
2018-07-27T00:10:25.500Z,1.00
2018-07-27T00:12:54.367Z,1.20
2018-07-27T00:15:23.276Z,1.10
2018-07-27T00:17:52.164Z,1.20
2018-07-27T00:20:21.096Z,1.10
2018-07-27T00:22:49.971Z,1.02
2018-07-27T00:25:18.873Z,1.10
2018-07-27T00:27:47.769Z,1.30
2018-07-27T00:30:16.649Z,1.12
2018-07-27T00:32:45.568Z,1.30
2018-07-27T00:35:14.517Z,1.17
2018-07-27T00:37:43.523Z,1.00
2018-07-27T00:40:12.529Z,1.20
2018-07-27T00:42:41.473Z,1.20
2018-07-27T00:45:10.420Z,1.10
2018-07-27T00:47:39.480Z,1.10
2018-07-27T00:50:08.693Z,1.20
2018-07-27T00:52:37.844Z,1.30
2018-07-27T00:55:06.868Z,1.00
2018-07-27T00:57:35.924Z,1.27
2018-07-27T01:00:05.473Z,1.20
2018-07-27T01:02:34.552Z,1.12
2018-07-27T01:05:03.701Z,1.20
2018-07-27T01:07:32.685Z,1.13
2018-07-27T01:10:01.645Z,1.20
2018-07-27T01:12:30.592Z,1.20
2018-07-27T01:14:59.532Z,1.23
2018-07-27T01:17:28.448Z,1.12
2018-07-27T01:19:57.389Z,1.27
2018-07-27T01:22:26.324Z,1.30
2018-07-27T01:24:55.360Z,1.30
2018-07-27T01:27:24.344Z,1.37
2018-07-27T01:29:53.268Z,1.35
2018-07-27T01:32:22.168Z,1.20
2018-07-27T01:34:51.118Z,1.15
2018-07-27T01:37:20.029Z,1.20
2018-07-27T01:39:48.991Z,1.20
2018-07-27T01:42:17.895Z,1.10
2018-07-27T01:44:46.861Z,1.20
2018-07-27T01:47:15.808Z,1.20
2018-07-27T01:49:44.753Z,1.45
2018-07-27T01:52:13.724Z,1.20
2018-07-27T01:54:42.685Z,1.40
2018-07-27T01:57:11.774Z,1.30
2018-07-27T01:59:40.831Z,1.30
2018-07-27T02:02:09.944Z,1.25
2018-07-27T02:04:38.996Z,1.40
2018-07-27T02:07:08.127Z,1.30
2018-07-27T02:09:37.174Z,1.30
2018-07-27T02:12:06.469Z,1.50
2018-07-27T02:14:35.481Z,1.60
2018-07-27T02:17:04.623Z,1.40
2018-07-27T02:19:33.635Z,1.40
2018-07-27T02:22:02.564Z,1.60
2018-07-27T02:24:32.413Z,1.50
2018-07-27T02:27:01.324Z,1.50
2018-07-27T02:29:30.221Z,1.50
2018-07-27T02:31:59.170Z,1.45
2018-07-27T02:34:28.044Z,1.40
2018-07-27T02:36:56.948Z,1.52
2018-07-27T02:39:25.845Z,1.50
2018-07-27T02:41:54.773Z,1.60
2018-07-27T02:44:23.639Z,1.60
2018-07-27T02:46:52.568Z,1.50
2018-07-27T02:49:21.517Z,1.57
2018-07-27T02:51:50.450Z,1.52
2018-07-27T02:54:19.336Z,1.65
2018-07-27T02:56:48.237Z,1.50
2018-07-27T02:59:17.128Z,1.55
2018-07-27T03:01:46.061Z,1.70
2018-07-27T03:04:14.973Z,1.40
2018-07-27T03:06:43.893Z,1.70
2018-07-27T03:09:13.107Z,1.47
2018-07-27T03:11:42.164Z,1.62
2018-07-27T03:14:11.193Z,1.60
2018-07-27T03:16:40.129Z,1.70
2018-07-27T03:19:09.293Z,1.67
2018-07-27T03:21:38.260Z,1.50
2018-07-27T03:24:07.306Z,1.57
2018-07-27T03:26:36.342Z,1.50
2018-07-27T03:29:05.390Z,1.60
2018-07-27T03:31:34.372Z,1.60
2018-07-27T03:34:03.398Z,1.70
2018-07-27T03:36:32.341Z,1.83
2018-07-27T03:39:01.287Z,1.70
2018-07-27T03:41:30.220Z,1.70
2018-07-27T03:43:59.180Z,1.70
2018-07-27T03:46:28.162Z,1.70
2018-07-27T03:48:57.156Z,1.70
2018-07-27T03:51:26.129Z,1.70
2018-07-27T03:53:55.042Z,1.90
2018-07-27T03:56:23.957Z,1.83
2018-07-27T03:58:52.864Z,1.87
2018-07-27T04:01:21.745Z,1.70
2018-07-27T04:03:50.664Z,1.90
2018-07-27T04:06:19.544Z,1.80
2018-07-27T04:08:48.457Z,1.70
2018-07-27T04:11:17.367Z,1.70
2018-07-27T04:13:46.229Z,1.80
2018-07-27T04:16:15.152Z,1.75
2018-07-27T04:18:44.020Z,1.90
2018-07-27T04:21:12.972Z,1.90
2018-07-27T04:23:41.885Z,1.73
2018-07-27T04:26:10.854Z,1.90
2018-07-27T04:28:39.844Z,1.90
2018-07-27T04:31:08.809Z,1.72
2018-07-27T04:33:37.845Z,1.92
2018-07-27T04:36:06.969Z,1.90
2018-07-27T04:38:36.022Z,1.77
2018-07-27T04:41:05.052Z,1.90
2018-07-27T04:43:34.066Z,1.87
2018-07-27T04:46:02.979Z,2.10
2018-07-27T04:48:31.858Z,2.10
2018-07-27T04:51:00.868Z,1.90
2018-07-27T04:53:29.792Z,2.00
2018-07-27T04:55:58.728Z,1.92
2018-07-27T04:58:27.635Z,2.20
2018-07-27T05:00:56.508Z,2.17
2018-07-27T05:03:25.433Z,2.07
2018-07-27T05:05:54.324Z,2.10
2018-07-27T05:08:23.257Z,2.12
2018-07-27T05:10:52.224Z,2.20
2018-07-27T05:13:21.140Z,2.40
2018-07-27T05:15:50.400Z,2.37
2018-07-27T05:18:19.428Z,2.30
2018-07-27T05:20:48.408Z,2.20
2018-07-27T05:23:17.360Z,2.30
2018-07-27T05:25:46.241Z,2.20
2018-07-27T05:28:15.191Z,2.20
2018-07-27T05:30:44.117Z,2.10
2018-07-27T05:33:13.040Z,2.00
2018-07-27T05:35:41.928Z,2.00
2018-07-27T05:38:10.849Z,2.10
2018-07-27T05:40:39.784Z,2.15
2018-07-27T05:43:08.712Z,2.10
2018-07-27T05:45:37.582Z,2.10
2018-07-27T05:48:06.576Z,1.77
2018-07-27T05:50:35.515Z,2.10
2018-07-27T05:53:04.586Z,2.20
2018-07-27T05:55:33.501Z,2.07
2018-07-27T05:58:02.448Z,1.80
2018-07-27T06:00:31.361Z,1.95
2018-07-27T06:03:00.380Z,1.80
2018-07-27T06:05:29.289Z,1.80
2018-07-27T06:07:58.285Z,1.98
2018-07-27T06:10:27.203Z,1.80
2018-07-27T06:12:56.118Z,1.80
2018-07-27T06:15:25.046Z,1.90
2018-07-27T06:17:54.048Z,1.85
2018-07-27T06:20:22.992Z,1.98
2018-07-27T06:22:51.900Z,1.80
2018-07-27T06:25:20.791Z,1.77
2018-07-27T06:27:49.696Z,1.95
2018-07-27T06:30:18.603Z,1.90
2018-07-27T06:32:47.549Z,1.72
2018-07-27T06:35:16.460Z,1.63
2018-07-27T06:37:45.416Z,1.90
2018-07-27T06:40:14.300Z,1.90
2018-07-27T06:42:43.252Z,1.60
2018-07-27T06:45:12.221Z,1.85
2018-07-27T06:47:41.083Z,1.80
2018-07-27T06:50:10.008Z,2.05
2018-07-27T06:52:39.204Z,1.77
2018-07-27T06:55:08.132Z,1.80
2018-07-27T06:57:37.041Z,1.80
2018-07-27T07:00:06.660Z,1.75
2018-07-27T07:02:35.519Z,1.80
2018-07-27T07:05:04.604Z,1.80
2018-07-27T07:07:33.463Z,1.60
2018-07-27T07:10:02.421Z,1.80
2018-07-27T07:12:31.331Z,1.60
2018-07-27T07:15:00.268Z,1.60
2018-07-27T07:17:29.238Z,1.60
2018-07-27T07:19:58.222Z,1.80
2018-07-27T07:22:27.105Z,1.70
2018-07-27T07:24:56.366Z,1.77
2018-07-27T07:27:25.336Z,1.60
2018-07-27T07:29:54.272Z,1.83
2018-07-27T07:32:23.183Z,1.70
2018-07-27T07:34:52.112Z,1.95
2018-07-27T07:37:21.179Z,1.80
2018-07-27T07:39:50.183Z,1.75
2018-07-27T07:42:19.056Z,1.60
2018-07-27T07:44:48.009Z,1.63
2018-07-27T07:47:16.949Z,1.65
2018-07-27T07:49:45.884Z,1.70
2018-07-27T07:52:14.788Z,1.70
2018-07-27T07:54:43.712Z,1.40
2018-07-27T07:57:12.608Z,1.63
2018-07-27T07:59:41.552Z,1.47
2018-07-27T08:02:10.436Z,1.62
2018-07-27T08:04:39.372Z,1.60
2018-07-27T08:07:08.320Z,1.40
2018-07-27T08:09:37.279Z,1.40
2018-07-27T08:12:06.290Z,1.40
2018-07-27T08:14:35.211Z,1.30
2018-07-27T08:17:04.420Z,1.52
2018-07-27T08:19:33.348Z,1.30
2018-07-27T08:22:02.321Z,1.50
2018-07-27T08:24:31.340Z,1.60
2018-07-27T08:27:02.037Z,1.50
2018-07-27T08:29:32.255Z,1.30
2018-07-27T08:32:01.482Z,1.70
2018-07-27T08:34:30.424Z,1.35
2018-07-27T08:36:59.333Z,1.40
2018-07-27T08:39:30.339Z,1.55
2018-07-27T08:41:59.316Z,1.43
2018-07-27T08:44:29.496Z,1.40
2018-07-27T08:46:58.461Z,1.40
2018-07-27T08:49:27.402Z,1.50
2018-07-27T08:51:56.285Z,1.50
2018-07-27T08:54:25.224Z,1.93
2018-07-27T08:56:54.124Z,1.50
2018-07-27T08:59:23.059Z,1.60
2018-07-27T09:01:51.933Z,1.40
2018-07-27T09:04:20.845Z,1.50
2018-07-27T09:06:49.732Z,1.50
2018-07-27T09:09:19.337Z,1.57
2018-07-27T09:11:48.239Z,1.60
2018-07-27T09:14:17.185Z,1.55
2018-07-27T09:16:46.043Z,1.45
2018-07-27T09:19:14.980Z,1.50
2018-07-27T09:21:44.088Z,1.40
2018-07-27T09:24:13.137Z,1.40
2018-07-27T09:26:41.990Z,1.60
2018-07-27T09:29:10.853Z,1.50
2018-07-27T09:31:39.749Z,1.70
2018-07-27T09:34:08.672Z,1.60
2018-07-27T09:36:37.589Z,1.67
2018-07-27T09:39:08.793Z,1.50
2018-07-27T09:41:37.820Z,1.50
2018-07-27T09:44:06.896Z,1.65
2018-07-27T09:46:36.030Z,1.50
2018-07-27T09:49:05.024Z,1.55
2018-07-27T09:51:33.982Z,1.55
2018-07-27T09:54:02.860Z,1.57
2018-07-27T09:56:31.756Z,1.50
2018-07-27T09:59:00.632Z,1.32
2018-07-27T10:01:30.074Z,1.50
2018-07-27T10:03:58.944Z,1.50
2018-07-27T10:06:27.895Z,1.32
2018-07-27T10:08:56.761Z,1.40
2018-07-27T10:11:25.685Z,1.35
2018-07-27T10:13:54.556Z,1.33
2018-07-27T10:16:23.468Z,1.40
2018-07-27T10:18:52.317Z,1.40
2018-07-27T10:21:21.231Z,1.50
2018-07-27T10:23:50.085Z,1.20
2018-07-27T10:26:19.029Z,1.45
2018-07-27T10:28:47.895Z,1.40
2018-07-27T10:31:16.803Z,1.40
2018-07-27T10:33:45.733Z,1.55
2018-07-27T10:36:14.676Z,1.30
2018-07-27T10:38:43.624Z,1.35
2018-07-27T10:41:12.508Z,1.40
2018-07-27T10:43:41.380Z,1.50
2018-07-27T10:46:10.288Z,1.40
2018-07-27T10:48:39.152Z,1.40
2018-07-27T10:51:08.105Z,1.40
2018-07-27T10:53:36.988Z,1.40
2018-07-27T10:56:06.115Z,1.20
2018-07-27T10:58:34.983Z,1.20
2018-07-27T11:01:03.913Z,1.30
2018-07-27T11:03:32.785Z,1.40
2018-07-27T11:06:01.669Z,1.30
2018-07-27T11:08:30.540Z,1.30
2018-07-27T11:10:59.527Z,1.30
2018-07-27T11:13:28.432Z,1.22
2018-07-27T11:15:57.360Z,1.37
2018-07-27T11:18:26.286Z,1.20
2018-07-27T11:20:55.276Z,1.15
2018-07-27T11:23:24.168Z,1.20
2018-07-27T11:25:53.127Z,1.02
2018-07-27T11:28:22.063Z,1.20
2018-07-27T11:30:50.981Z,1.15
2018-07-27T11:33:19.855Z,1.20
2018-07-27T11:35:48.809Z,1.10
2018-07-27T11:38:17.770Z,1.07
2018-07-27T11:40:46.717Z,1.20
2018-07-27T11:43:15.608Z,1.00
2018-07-27T11:45:44.548Z,1.20
2018-07-27T11:48:13.452Z,1.20
2018-07-27T11:50:42.384Z,1.20
2018-07-27T11:53:11.307Z,1.17
2018-07-27T11:55:40.239Z,1.17
2018-07-27T11:58:09.131Z,1.00
2018-07-27T12:00:38.088Z,1.00
2018-07-27T12:03:06.983Z,1.07
2018-07-27T12:05:35.866Z,1.22
2018-07-27T12:08:04.812Z,1.22
2018-07-27T12:10:33.714Z,1.00
2018-07-27T12:13:02.645Z,1.07
2018-07-27T12:15:31.584Z,1.00
2018-07-27T12:18:00.491Z,0.90
2018-07-27T12:20:29.458Z,0.90
2018-07-27T12:22:58.368Z,1.00
2018-07-27T12:25:27.238Z,0.90
2018-07-27T12:27:56.149Z,0.90
2018-07-27T12:30:25.060Z,1.00
2018-07-27T12:32:53.968Z,0.90
2018-07-27T12:35:22.823Z,1.10
2018-07-27T12:37:51.719Z,0.88
2018-07-27T12:40:20.596Z,0.90
2018-07-27T12:42:49.509Z,1.00
2018-07-27T12:45:18.344Z,0.90
2018-07-27T12:47:47.296Z,1.10
2018-07-27T12:50:16.218Z,1.10
2018-07-27T12:52:45.170Z,0.90
2018-07-27T12:55:14.076Z,0.93
2018-07-27T12:57:42.972Z,0.93
2018-07-27T13:00:11.861Z,1.00
2018-07-27T13:02:40.787Z,1.00
2018-07-27T13:05:09.698Z,0.85
2018-07-27T13:07:38.648Z,1.00
2018-07-27T13:10:08.009Z,1.00
2018-07-27T13:12:38.039Z,0.80
2018-07-27T13:15:07.989Z,0.90
2018-07-27T13:17:36.996Z,0.93
2018-07-27T13:20:06.556Z,0.80
2018-07-27T13:22:35.570Z,0.93
2018-07-27T13:25:04.603Z,1.10
2018-07-27T13:27:33.507Z,0.82
2018-07-27T13:30:02.421Z,1.00
2018-07-27T13:32:31.357Z,0.90
2018-07-27T13:35:00.916Z,0.85
2018-07-27T13:40:00.985Z,0.97
2018-07-27T13:42:31.168Z,0.90
2018-07-27T13:45:00.196Z,0.90
2018-07-27T13:47:29.188Z,1.10
2018-07-27T13:49:58.168Z,0.90
2018-07-27T13:52:27.222Z,0.90
2018-07-27T13:54:56.626Z,1.02
2018-07-27T13:57:25.700Z,0.80
2018-07-27T13:59:54.760Z,1.00
2018-07-27T14:02:23.732Z,0.80
2018-07-27T14:04:52.672Z,0.80
2018-07-27T14:07:21.708Z,0.90
2018-07-27T14:09:50.855Z,0.80
2018-07-27T14:12:19.891Z,0.80
2018-07-27T14:14:49.032Z,1.60
2018-07-27T14:17:18.122Z,0.90
2018-07-27T14:19:47.100Z,0.95
2018-07-27T14:22:16.077Z,0.80
2018-07-27T14:24:45.004Z,0.93
2018-07-27T14:27:20.276Z,0.70
2018-07-27T14:29:49.172Z,0.97
2018-07-27T14:32:18.101Z,0.90
2018-07-27T14:34:47.062Z,0.70
2018-07-27T14:37:15.974Z,0.90
2018-07-27T14:39:44.940Z,0.80
2018-07-27T14:42:13.830Z,0.70
2018-07-27T14:44:42.818Z,0.90
2018-07-27T14:47:11.782Z,0.98
2018-07-27T14:49:40.728Z,0.82
2018-07-27T14:52:09.654Z,1.00
2018-07-27T14:54:38.569Z,0.93
2018-07-27T14:57:07.514Z,0.98
2018-07-27T14:59:36.438Z,0.90
2018-07-27T15:02:05.409Z,0.80
2018-07-27T15:04:34.328Z,0.75
2018-07-27T15:07:03.293Z,0.88
2018-07-27T15:09:32.297Z,0.85
2018-07-27T15:12:01.223Z,0.80
2018-07-27T15:14:30.164Z,0.72
2018-07-27T15:16:59.049Z,0.80
2018-07-27T15:19:27.968Z,1.00
2018-07-27T15:21:57.477Z,0.90
2018-07-27T15:24:26.488Z,1.10
2018-07-27T15:26:55.420Z,0.90
2018-07-27T15:29:24.380Z,0.87
2018-07-27T15:31:53.270Z,0.80
2018-07-27T15:34:22.193Z,0.80
2018-07-27T15:36:51.436Z,0.90
2018-07-27T15:39:20.373Z,0.98
2018-07-27T15:41:49.288Z,0.90
2018-07-27T15:44:18.316Z,0.90
2018-07-27T15:46:47.221Z,0.70
2018-07-27T15:49:16.152Z,0.80
2018-07-27T15:51:45.537Z,0.80
2018-07-27T15:54:14.476Z,0.90
2018-07-27T15:56:43.556Z,0.80
2018-07-27T15:59:12.479Z,0.78
2018-07-27T16:01:41.384Z,0.95
2018-07-27T16:04:10.299Z,1.00
2018-07-27T16:06:39.177Z,0.90
2018-07-27T16:09:09.121Z,0.80
2018-07-27T16:11:38.040Z,0.90
2018-07-27T16:14:06.968Z,1.00
2018-07-27T16:16:35.886Z,0.80
2018-07-27T16:19:04.903Z,0.80
2018-07-27T16:21:33.769Z,0.93
2018-07-27T16:24:02.746Z,0.88
2018-07-27T16:26:31.673Z,1.00
2018-07-27T16:29:00.663Z,0.80
2018-07-27T16:31:29.565Z,1.00
2018-07-27T16:33:58.568Z,0.70
2018-07-27T16:36:27.484Z,0.95
2018-07-27T16:38:56.490Z,0.90
2018-07-27T16:41:25.448Z,0.90
2018-07-27T16:43:54.404Z,1.00
2018-07-27T16:46:23.326Z,0.90
2018-07-27T16:48:52.325Z,1.07
2018-07-27T16:51:21.228Z,0.90
2018-07-27T16:53:50.180Z,0.98
2018-07-27T16:56:19.080Z,0.95
2018-07-27T16:58:47.963Z,0.95
2018-07-27T17:01:16.901Z,0.85
2018-07-27T17:03:45.820Z,0.80
2018-07-27T17:06:14.756Z,1.05
2018-07-27T17:08:43.722Z,0.80
2018-07-27T17:11:12.667Z,0.90
2018-07-27T17:13:41.544Z,0.90
2018-07-27T17:16:10.492Z,1.00
2018-07-27T17:18:39.380Z,0.90
2018-07-27T17:21:08.312Z,0.85
2018-07-27T17:23:37.220Z,0.93
2018-07-27T17:26:06.173Z,0.82
2018-07-27T17:28:35.112Z,1.00
2018-07-27T17:31:04.178Z,0.90
2018-07-27T17:33:33.105Z,1.00
2018-07-27T17:36:02.029Z,0.90
2018-07-27T17:38:30.903Z,0.95
2018-07-27T17:40:59.885Z,1.00
2018-07-27T17:43:28.876Z,0.70
2018-07-27T17:45:57.872Z,0.90
2018-07-27T17:48:26.784Z,1.00
2018-07-27T17:50:55.733Z,0.93
2018-07-27T17:53:24.608Z,1.00
2018-07-27T17:55:53.527Z,0.90
2018-07-27T17:58:22.397Z,0.95
2018-07-27T18:00:51.396Z,1.00
2018-07-27T18:03:20.273Z,1.10
2018-07-27T18:05:49.203Z,1.07
2018-07-27T18:08:18.112Z,1.20
2018-07-27T18:10:47.112Z,1.00
2018-07-27T18:13:16.021Z,0.90
2018-07-27T18:15:44.964Z,1.00
2018-07-27T18:18:13.948Z,1.10
2018-07-27T18:20:42.907Z,1.00
2018-07-27T18:23:11.793Z,1.10
2018-07-27T18:25:40.739Z,1.20
2018-07-27T18:28:09.621Z,1.10
2018-07-27T18:30:38.612Z,1.10
2018-07-27T18:33:07.985Z,1.30
2018-07-27T18:35:36.920Z,1.10
2018-07-27T18:38:05.872Z,1.00
2018-07-27T18:40:34.832Z,1.10
2018-07-27T18:43:03.716Z,1.10
2018-07-27T18:45:32.626Z,1.10
2018-07-27T18:48:01.541Z,1.20
2018-07-27T18:50:30.490Z,1.00
2018-07-27T18:52:59.388Z,0.90
2018-07-27T18:55:29.443Z,1.15
2018-07-27T18:57:58.380Z,1.17
2018-07-27T19:00:27.358Z,1.25
2018-07-27T19:02:56.283Z,1.35
2018-07-27T19:05:25.184Z,1.32
2018-07-27T19:07:54.052Z,1.40
2018-07-27T19:10:23.048Z,1.30
2018-07-27T19:12:51.929Z,1.20
2018-07-27T19:21:20.245Z,1.20
2018-07-27T19:23:49.128Z,1.40
2018-07-27T19:26:18.084Z,1.22
2018-07-27T19:28:47.026Z,1.30
2018-07-27T19:31:16.088Z,1.50
2018-07-27T19:33:45.049Z,1.40
2018-07-27T19:36:14.042Z,1.40
2018-07-27T19:38:43.037Z,1.42
2018-07-27T19:41:12.069Z,1.47
2018-07-27T19:43:41.157Z,1.60
2018-07-27T19:46:10.362Z,1.50
2018-07-27T19:48:39.700Z,1.67
2018-07-27T19:51:08.673Z,1.37
2018-07-27T19:53:37.647Z,1.50
2018-07-27T19:56:07.008Z,1.40
2018-07-27T19:58:35.924Z,1.70
2018-07-27T20:01:04.916Z,1.60
2018-07-27T20:03:34.072Z,1.50
2018-07-27T20:06:02.980Z,1.50
2018-07-27T20:08:31.895Z,1.57
2018-07-27T20:11:00.845Z,1.70
2018-07-27T20:13:29.741Z,1.70
2018-07-27T20:15:58.667Z,1.62
2018-07-27T20:18:27.564Z,1.80
2018-07-27T20:20:56.557Z,1.70
2018-07-27T20:23:25.555Z,1.75
2018-07-27T20:25:54.505Z,1.80
2018-07-27T20:28:23.761Z,2.10
2018-07-27T20:30:53.066Z,1.80
2018-07-27T20:33:22.108Z,1.75
2018-07-27T20:35:51.056Z,2.00
2018-07-27T20:38:19.925Z,2.00
2018-07-27T20:40:48.823Z,1.85
2018-07-27T20:43:17.793Z,1.80
2018-07-27T20:45:46.729Z,1.77
2018-07-27T20:48:15.829Z,1.70
2018-07-27T20:50:44.814Z,1.77
2018-07-27T20:53:13.897Z,1.90
2018-07-27T20:55:42.988Z,2.00
2018-07-27T20:58:13.126Z,2.00
2018-07-27T21:00:42.145Z,2.10
2018-07-27T21:03:11.137Z,1.90
2018-07-27T21:05:40.121Z,1.80
2018-07-27T21:08:09.090Z,1.92
2018-07-27T21:10:38.053Z,1.77
2018-07-27T21:13:07.012Z,1.62
2018-07-27T21:15:35.899Z,1.72
2018-07-27T21:18:04.849Z,1.77
2018-07-27T21:20:33.784Z,1.90
2018-07-27T21:23:02.756Z,1.80
2018-07-27T21:25:31.657Z,2.00
2018-07-27T21:28:00.576Z,1.90
2018-07-27T21:30:29.464Z,1.90
2018-07-27T21:32:58.425Z,2.00
2018-07-27T21:35:27.305Z,1.90
2018-07-27T21:37:56.248Z,2.03
2018-07-27T21:40:25.125Z,4.97
2018-07-27T21:42:54.049Z,2.40
2018-07-27T21:45:23.028Z,2.00
2018-07-27T21:47:51.960Z,1.72
2018-07-27T21:50:20.872Z,1.90
2018-07-27T21:52:49.860Z,1.90
2018-07-27T21:55:18.939Z,1.72
2018-07-27T21:57:48.031Z,1.72
2018-07-27T22:00:17.061Z,1.80
2018-07-27T22:02:46.148Z,1.80
2018-07-27T22:05:15.170Z,1.77
2018-07-27T22:07:44.381Z,1.65
2018-07-27T22:10:13.593Z,1.60
2018-07-27T22:12:42.806Z,1.60
2018-07-27T22:15:15.995Z,1.50
2018-07-27T22:17:45.064Z,1.50
2018-07-27T22:20:14.140Z,1.52
2018-07-27T22:22:43.316Z,1.52
2018-07-27T22:25:12.366Z,1.30
2018-07-27T22:27:41.508Z,1.30
2018-07-27T22:30:11.690Z,1.40
2018-07-27T22:32:40.758Z,1.20
2018-07-27T22:35:09.761Z,1.30
2018-07-27T22:37:40.015Z,1.45
2018-07-27T22:40:10.501Z,1.50
2018-07-27T22:42:39.829Z,1.20
2018-07-27T22:45:09.743Z,1.40
2018-07-27T22:47:38.730Z,1.30
2018-07-27T22:50:08.040Z,1.27
2018-07-27T22:52:40.016Z,1.22
2018-07-27T22:55:12.230Z,1.30
2018-07-27T22:57:42.571Z,1.50
2018-07-27T23:00:14.530Z,1.30
2018-07-27T23:02:43.929Z,1.30
2018-07-27T23:05:13.542Z,1.50
2018-07-27T23:07:42.800Z,1.20
2018-07-27T23:10:12.017Z,1.30
2018-07-27T23:12:41.292Z,1.60
2018-07-27T23:15:12.013Z,1.32
2018-07-27T23:17:41.210Z,1.37
2018-07-27T23:20:15.354Z,1.30
2018-07-27T23:22:44.741Z,1.60
2018-07-27T23:25:13.798Z,1.40
2018-07-27T23:27:43.002Z,1.50
2018-07-27T23:30:13.420Z,1.40
2018-07-27T23:32:42.749Z,1.40
2018-07-27T23:35:11.982Z,1.50
2018-07-27T23:37:41.308Z,1.40
2018-07-27T23:40:10.584Z,1.40
2018-07-27T23:42:39.856Z,1.50
2018-07-27T23:45:09.552Z,1.50
2018-07-27T23:47:38.652Z,1.50
2018-07-27T23:50:08.022Z,1.50
2018-07-27T23:52:36.936Z,1.40
2018-07-27T23:55:05.979Z,1.40
2018-07-27T23:57:34.904Z,1.30
